createdAt,value
2023-02-27T00:30:16.493Z,29.90
2023-02-27T00:31:16.523Z,28.34
2023-02-27T00:32:16.596Z,31.83
2023-02-27T00:33:16.563Z,35.20
2023-02-27T00:34:16.620Z,39.14
2023-02-27T00:35:16.615Z,32.87
2023-02-27T00:36:16.661Z,34.67
2023-02-27T00:37:16.657Z,32.33
2023-02-27T00:38:16.727Z,39.61
2023-02-27T00:39:16.772Z,32.77
2023-02-27T00:40:16.820Z,28.38
2023-02-27T00:41:16.869Z,39.62
2023-02-27T00:42:16.894Z,38.84
2023-02-27T00:43:16.945Z,35.04
2023-02-27T00:44:16.985Z,36.81
2023-02-27T00:45:16.977Z,32.57
2023-02-27T00:46:17.074Z,32.34
2023-02-27T00:47:17.060Z,27.33
2023-02-27T00:48:17.099Z,31.52
2023-02-27T00:49:17.144Z,31.92
2023-02-27T00:50:17.158Z,35.89
2023-02-27T00:51:17.207Z,38.24
2023-02-27T00:52:17.250Z,38.59
2023-02-27T00:53:17.242Z,38.41
2023-02-27T00:54:17.289Z,41.21
2023-02-27T00:55:17.287Z,40.21
2023-02-27T00:56:17.340Z,38.90
2023-02-27T00:57:17.412Z,35.30
2023-02-27T00:58:17.411Z,39.41
2023-02-27T00:59:17.449Z,40.14
2023-02-27T01:00:17.478Z,42.47
2023-02-27T01:01:17.629Z,41.29
2023-02-27T01:02:17.554Z,41.87
2023-02-27T01:03:17.587Z,40.87
2023-02-27T01:04:17.606Z,39.55
2023-02-27T01:05:17.646Z,45.36
2023-02-27T01:06:17.638Z,44.65
2023-02-27T01:07:17.679Z,48.21
2023-02-27T01:08:17.737Z,44.68
2023-02-27T01:09:17.733Z,37.70
2023-02-27T01:10:17.758Z,43.08
2023-02-27T01:11:17.773Z,41.72
2023-02-27T01:12:17.796Z,37.47
2023-02-27T01:13:17.832Z,35.70
2023-02-27T01:14:17.898Z,36.93
2023-02-27T01:15:17.890Z,40.12
2023-02-27T01:16:17.948Z,45.33
2023-02-27T01:17:17.951Z,44.48
2023-02-27T01:18:17.960Z,46.53
2023-02-27T01:19:18.009Z,44.73
2023-02-27T01:20:18.046Z,46.91
2023-02-27T01:21:18.077Z,49.64
2023-02-27T01:22:18.107Z,46.17
2023-02-27T01:23:18.112Z,47.90
2023-02-27T01:24:18.140Z,43.55
2023-02-27T01:25:18.206Z,39.11
2023-02-27T01:26:18.194Z,49.06
2023-02-27T01:27:18.195Z,48.08
2023-02-27T01:28:18.218Z,52.22
2023-02-27T01:29:18.215Z,49.35
2023-02-27T01:30:18.242Z,45.10
2023-02-27T01:31:18.334Z,52.23
2023-02-27T01:32:18.369Z,51.18
2023-02-27T01:33:18.302Z,52.59
2023-02-27T01:34:18.350Z,45.64
2023-02-27T01:35:18.323Z,49.20
2023-02-27T02:38:19.236Z,57.80
2023-02-27T02:39:19.214Z,54.11
2023-02-27T02:40:19.230Z,56.85
2023-02-27T02:41:19.248Z,54.66
2023-02-27T02:42:19.266Z,57.27
2023-02-27T02:43:19.283Z,56.83
2023-02-27T02:44:19.354Z,56.50
2023-02-27T02:45:19.309Z,56.84
2023-02-27T02:46:19.346Z,56.32
2023-02-27T02:47:19.330Z,54.82
2023-02-27T02:48:19.366Z,56.81
2023-02-27T02:49:19.381Z,59.34
2023-02-27T02:50:19.361Z,55.65
2023-02-27T02:51:19.375Z,59.78
2023-02-27T02:52:19.361Z,59.42
2023-02-27T02:53:19.367Z,60.65
2023-02-27T02:54:19.383Z,60.47
2023-02-27T02:55:19.373Z,59.92
2023-02-27T02:56:19.413Z,60.60
2023-02-27T02:57:19.391Z,60.52
2023-02-27T02:58:19.461Z,57.38
2023-02-27T02:59:19.424Z,61.48
2023-02-27T03:00:19.455Z,63.47
2023-02-27T03:01:19.519Z,61.76
2023-02-27T03:02:19.486Z,58.97
2023-02-27T03:03:19.469Z,61.48
2023-02-27T03:04:19.508Z,58.39
2023-02-27T03:05:19.465Z,60.33
2023-02-27T03:06:19.453Z,58.95
2023-02-27T03:07:19.476Z,59.65
2023-02-27T03:08:19.480Z,60.54
2023-02-27T03:09:19.481Z,61.97
2023-02-27T03:10:20.403Z,59.31
2023-02-27T03:11:19.467Z,60.34
2023-02-27T03:12:19.491Z,61.93
2023-02-27T03:13:19.471Z,61.48
2023-02-27T03:14:19.478Z,60.25
2023-02-27T03:15:19.495Z,60.73
2023-02-27T03:16:19.539Z,57.21
2023-02-27T03:17:19.502Z,60.93
2023-02-27T03:18:19.483Z,57.24
2023-02-27T03:19:19.516Z,60.14
2023-02-27T03:20:19.513Z,61.95
2023-02-27T03:21:19.489Z,58.47
2023-02-27T03:22:19.539Z,59.31
2023-02-27T03:23:19.505Z,59.80
2023-02-27T03:24:19.508Z,61.30
2023-02-27T03:25:19.481Z,59.59
2023-02-27T03:26:19.496Z,58.51
2023-02-27T03:27:20.379Z,58.08
2023-02-27T03:28:19.504Z,60.43
2023-02-27T03:29:19.506Z,58.95
2023-02-27T03:30:19.526Z,60.81
2023-02-27T03:31:19.569Z,61.11
2023-02-27T03:32:19.572Z,61.72
2023-02-27T03:33:19.477Z,59.21
2023-02-27T03:34:19.476Z,57.46
2023-02-27T03:35:19.483Z,58.66
2023-02-27T03:36:19.513Z,57.13
2023-02-27T03:37:19.498Z,56.18
2023-02-27T03:38:19.515Z,59.31
2023-02-27T03:39:19.501Z,58.56
2023-02-27T03:40:19.480Z,56.44
2023-02-27T03:41:19.515Z,57.65
2023-02-27T03:42:19.487Z,58.54
2023-02-27T03:43:19.494Z,61.75
2023-02-27T03:44:19.477Z,58.22
2023-02-27T03:45:20.375Z,59.57
2023-02-27T03:46:19.518Z,57.56
2023-02-27T03:47:19.483Z,57.70
2023-02-27T03:48:19.463Z,61.33
2023-02-27T04:43:19.195Z,55.44
2023-02-27T04:44:19.219Z,60.35
2023-02-27T04:45:19.217Z,57.01
2023-02-27T04:46:19.178Z,59.86
2023-02-27T04:47:19.241Z,59.45
2023-02-27T04:48:19.193Z,57.81
2023-02-27T04:49:19.153Z,55.75
2023-02-27T04:50:19.188Z,54.88
2023-02-27T04:51:19.184Z,59.42
2023-02-27T04:52:19.213Z,58.46
2023-02-27T04:53:19.168Z,57.68
2023-02-27T04:54:19.185Z,56.95
2023-02-27T04:55:19.180Z,56.24
2023-02-27T04:56:19.392Z,57.88
2023-02-27T04:57:19.168Z,56.11
2023-02-27T04:58:19.149Z,55.03
2023-02-27T04:59:19.158Z,58.98
2023-02-27T05:00:19.146Z,52.84
2023-02-27T05:01:19.143Z,54.62
2023-02-27T05:02:19.222Z,55.15
2023-02-27T05:03:19.124Z,56.39
2023-02-27T05:04:19.099Z,53.01
2023-02-27T05:05:19.102Z,52.09
2023-02-27T05:06:19.111Z,57.04
2023-02-27T05:07:19.100Z,50.67
2023-02-27T05:08:19.115Z,52.99
2023-02-27T05:09:19.073Z,52.45
2023-02-27T05:10:19.082Z,55.53
2023-02-27T05:11:19.093Z,55.61
2023-02-27T05:12:19.094Z,51.13
2023-02-27T05:13:19.056Z,52.23
2023-02-27T05:14:19.069Z,53.68
2023-02-27T05:15:19.087Z,52.77
2023-02-27T05:16:19.132Z,55.65
2023-02-27T05:17:19.079Z,54.82
2023-02-27T05:18:19.102Z,50.44
2023-02-27T05:19:19.078Z,56.23
2023-02-27T05:20:19.085Z,53.05
2023-02-27T05:21:19.096Z,50.11
2023-02-27T05:22:19.099Z,50.74
2023-02-27T05:23:19.105Z,50.68
2023-02-27T05:24:19.091Z,53.96
2023-02-27T05:25:19.129Z,53.21
2023-02-27T05:26:19.132Z,51.13
2023-02-27T05:27:19.101Z,50.02
2023-02-27T05:28:19.105Z,49.99
2023-02-27T05:29:19.107Z,49.03
2023-02-27T05:30:19.140Z,49.07
2023-02-27T05:31:19.170Z,51.24
2023-02-27T05:32:19.214Z,50.11
2023-02-27T05:33:19.148Z,50.33
2023-02-27T05:34:19.161Z,50.28
2023-02-27T05:35:19.140Z,52.47
2023-02-27T05:36:19.155Z,51.64
2023-02-27T05:48:19.933Z,49.75
2023-02-27T05:49:19.270Z,51.86
2023-02-27T05:50:19.274Z,54.03
2023-02-27T05:51:19.320Z,52.61
2023-02-27T05:52:19.295Z,49.97
2023-02-27T05:53:19.318Z,51.63
2023-02-27T05:54:19.344Z,52.76
2023-02-27T05:55:19.323Z,54.13
2023-02-27T05:56:19.337Z,49.94
2023-02-27T05:57:19.350Z,52.58
2023-02-27T05:58:19.325Z,47.39
2023-02-27T05:59:19.350Z,50.05
2023-02-27T06:01:38.499Z,25.00
2023-02-27T06:02:38.515Z,25.00
2023-02-27T06:03:38.497Z,25.00
2023-02-27T06:04:38.490Z,25.00
2023-02-27T06:05:38.478Z,25.00
2023-02-27T06:06:38.481Z,25.64
2023-02-27T06:07:38.483Z,25.51
2023-02-27T06:08:38.495Z,30.37
2023-02-27T06:09:38.419Z,28.98
2023-02-27T06:10:38.418Z,30.94
2023-02-27T06:11:38.408Z,27.64
2023-02-27T06:12:38.402Z,28.58
2023-02-27T06:13:40.801Z,30.33
2023-02-27T06:14:38.360Z,30.50
2023-02-27T06:15:38.507Z,30.72
2023-02-27T06:16:38.439Z,29.94
2023-02-27T06:17:38.338Z,25.18
2023-02-27T06:18:38.285Z,29.46
2023-02-27T06:19:38.270Z,28.05
2023-02-27T06:20:38.250Z,29.78
2023-02-27T06:21:38.268Z,31.22
2023-02-27T06:22:38.228Z,30.73
2023-02-27T06:23:38.210Z,31.66
2023-02-27T06:24:38.197Z,30.57
2023-02-27T06:25:38.193Z,35.01
2023-02-27T06:26:38.158Z,29.28
2023-02-27T06:27:38.211Z,29.48
2023-02-27T06:28:38.113Z,29.71
2023-02-27T06:29:38.102Z,28.55
2023-02-27T06:30:38.154Z,31.69
2023-02-27T06:31:38.052Z,31.30
2023-02-27T06:32:38.239Z,32.68
2023-02-27T06:33:38.041Z,26.44
2023-02-27T06:34:38.026Z,34.23
2023-02-27T06:35:38.002Z,28.45
2023-02-27T06:36:37.970Z,36.94
2023-02-27T06:37:37.949Z,62.98
2023-02-27T06:38:37.936Z,72.96
2023-02-27T06:39:37.908Z,74.96
2023-02-27T06:40:37.886Z,65.37
2023-02-27T06:41:37.886Z,61.70
2023-02-27T06:42:38.229Z,55.33
2023-02-27T06:43:37.867Z,49.03
2023-02-27T06:44:37.860Z,47.12
2023-02-27T06:45:37.846Z,44.50
2023-02-27T06:46:37.834Z,34.56
2023-02-27T06:47:38.237Z,25.40
2023-02-27T06:48:37.796Z,27.89
2023-02-27T06:49:37.836Z,35.09
2023-02-27T06:50:37.847Z,49.53
2023-02-27T06:51:37.799Z,54.99
2023-02-27T06:52:37.783Z,36.85
2023-02-27T06:53:37.766Z,37.18
2023-02-27T06:54:37.764Z,60.55
2023-02-27T06:55:37.762Z,71.64
2023-02-27T06:56:37.728Z,81.45
2023-02-27T06:57:37.722Z,89.40
2023-02-27T06:58:37.651Z,90.57
2023-02-27T06:59:37.670Z,103.34
2023-02-27T07:00:37.724Z,111.66
2023-02-27T07:01:37.738Z,115.26
2023-02-27T07:02:37.722Z,121.12
2023-02-27T07:03:37.591Z,130.45
2023-02-27T07:04:37.735Z,136.79
2023-02-27T07:05:37.581Z,144.56
2023-02-27T07:07:34.215Z,148.22
2023-02-27T07:07:39.021Z,148.75
2023-02-27T07:08:37.635Z,150.35
2023-02-27T07:09:38.537Z,148.89
2023-02-27T07:10:37.513Z,151.89
2023-02-27T07:11:37.466Z,158.25
2023-02-27T07:12:37.443Z,165.21
2023-02-27T07:13:37.455Z,181.56
2023-02-27T07:14:37.434Z,185.05
2023-02-27T07:15:37.450Z,193.78
2023-02-27T07:16:37.419Z,192.51
2023-02-27T07:17:37.371Z,201.33
2023-02-27T07:18:37.743Z,202.10
2023-02-27T07:19:37.321Z,202.98
2023-02-27T07:20:37.350Z,207.35
2023-02-27T07:21:37.311Z,204.45
2023-02-27T07:22:37.302Z,207.04
2023-02-27T07:24:37.249Z,216.20
2023-02-27T07:25:37.269Z,216.06
2023-02-27T07:26:37.242Z,230.28
2023-02-27T07:27:37.214Z,234.14
2023-02-27T07:28:37.253Z,236.16
2023-02-27T07:29:37.184Z,244.76
2023-02-27T07:30:37.128Z,238.33
2023-02-27T07:31:37.195Z,243.18
2023-02-27T07:32:37.114Z,243.26
2023-02-27T07:33:37.116Z,242.51
2023-02-27T07:34:37.085Z,246.33
2023-02-27T07:35:37.110Z,249.03
2023-02-27T07:36:37.075Z,247.40
2023-02-27T07:37:37.092Z,246.33
2023-02-27T07:38:37.252Z,250.50
2023-02-27T07:39:37.068Z,251.21
2023-02-27T07:40:37.077Z,241.80
2023-02-27T07:41:37.063Z,214.45
2023-02-27T07:42:37.084Z,182.55
2023-02-27T07:43:37.250Z,212.95
2023-02-27T07:44:37.732Z,206.38
2023-02-27T07:45:37.849Z,181.63
2023-02-27T07:46:37.382Z,93.13
2023-02-27T07:47:37.979Z,140.78
2023-02-27T07:48:37.265Z,192.00
2023-02-27T07:49:37.303Z,232.29
2023-02-27T07:50:37.269Z,232.52
2023-02-27T07:51:37.260Z,233.94
2023-02-27T07:52:37.315Z,237.44
2023-02-27T07:53:37.236Z,235.00
2023-02-27T07:54:37.226Z,244.14
2023-02-27T07:55:37.215Z,241.91
2023-02-27T07:56:37.204Z,242.31
2023-02-27T07:57:37.170Z,247.77
2023-02-27T07:58:37.165Z,248.25
2023-02-27T07:59:37.122Z,249.63
2023-02-27T08:00:37.098Z,246.58
2023-02-27T08:01:37.086Z,248.56
2023-02-27T08:02:37.088Z,247.87
2023-02-27T08:03:37.259Z,249.50
2023-02-27T08:04:37.029Z,245.19
2023-02-27T08:05:36.985Z,249.54
2023-02-27T08:06:36.936Z,248.77
2023-02-27T08:07:36.949Z,249.16
2023-02-27T08:08:37.305Z,249.73
2023-02-27T08:09:36.922Z,243.39
2023-02-27T08:10:36.909Z,244.19
2023-02-27T08:11:36.986Z,243.45
2023-02-27T08:12:36.936Z,244.22
2023-02-27T08:14:03.109Z,246.02
2023-02-27T08:14:37.915Z,246.27
2023-02-27T08:15:36.900Z,246.39
2023-02-27T08:16:36.864Z,246.02
2023-02-27T08:17:36.809Z,243.23
2023-02-27T08:18:36.780Z,244.28
2023-02-27T08:19:36.789Z,244.08
2023-02-27T08:20:37.284Z,245.46
2023-02-27T08:21:36.742Z,249.92
2023-02-27T08:22:36.676Z,243.52
2023-02-27T08:23:36.643Z,247.48
2023-02-27T08:24:36.617Z,249.34
2023-02-27T08:25:36.577Z,249.83
2023-02-27T08:26:36.531Z,243.32
2023-02-27T08:27:36.534Z,241.34
2023-02-27T08:28:36.519Z,245.32
2023-02-27T08:29:36.800Z,248.05
2023-02-27T08:30:36.502Z,244.91
2023-02-27T08:34:36.827Z,194.60
2023-02-27T08:39:36.776Z,135.30
2023-02-27T08:44:36.787Z,50.59
2023-02-27T08:45:36.519Z,70.45
2023-02-27T08:46:36.532Z,89.79
2023-02-27T08:47:36.614Z,120.54
2023-02-27T08:48:36.603Z,116.48
2023-02-27T08:49:36.653Z,127.38
2023-02-27T08:50:36.650Z,129.61
2023-02-27T08:51:36.700Z,134.77
2023-02-27T08:52:36.707Z,134.26
2023-02-27T08:53:36.819Z,138.68
2023-02-27T08:54:36.856Z,151.16
2023-02-27T08:55:36.792Z,153.17
2023-02-27T08:56:36.841Z,144.44
2023-02-27T08:57:36.856Z,148.32
2023-02-27T08:58:36.900Z,146.85
2023-02-27T08:59:37.318Z,157.07
2023-02-27T09:00:36.918Z,158.23
2023-02-27T09:01:36.940Z,163.54
2023-02-27T09:02:37.004Z,168.10
2023-02-27T09:03:36.945Z,166.35
2023-02-27T09:04:37.292Z,170.50
2023-02-27T09:05:37.009Z,171.53
2023-02-27T09:06:37.052Z,167.28
2023-02-27T09:07:37.006Z,171.24
2023-02-27T09:08:37.030Z,168.44
2023-02-27T09:09:37.045Z,169.95
2023-02-27T09:10:37.051Z,180.63
2023-02-27T09:11:38.779Z,170.34
2023-02-27T09:12:37.080Z,170.94
2023-02-27T09:13:37.104Z,168.90
2023-02-27T09:14:37.300Z,175.47
2023-02-27T09:15:37.103Z,174.58
2023-02-27T09:16:37.154Z,174.07
2023-02-27T09:17:37.167Z,169.19
2023-02-27T09:18:37.169Z,168.23
2023-02-27T09:19:37.294Z,174.13
2023-02-27T09:20:37.193Z,173.62
2023-02-27T09:21:37.182Z,175.35
2023-02-27T09:22:37.220Z,170.40
2023-02-27T09:23:37.213Z,174.21
2023-02-27T09:24:37.322Z,174.49
2023-02-27T09:25:37.238Z,129.97
2023-02-27T09:26:45.401Z,16.31
2023-02-27T09:27:38.213Z,0.00
2023-02-27T09:28:37.258Z,0.00
2023-02-27T09:29:37.203Z,21.17
2023-02-27T09:30:37.151Z,37.23
2023-02-27T09:31:37.207Z,45.32
2023-02-27T09:32:37.170Z,0.00
2023-02-27T09:33:37.211Z,0.00
2023-02-27T09:34:37.356Z,0.00
2023-02-27T09:35:37.133Z,0.00
2023-02-27T09:36:37.145Z,0.00
2023-02-27T09:37:37.510Z,0.00
2023-02-27T09:38:37.941Z,0.00
2023-02-27T09:39:37.292Z,0.00
2023-02-27T09:40:37.324Z,0.00
2023-02-27T09:41:37.213Z,0.00
2023-02-27T09:43:37.369Z,4.94
2023-02-27T09:44:46.102Z,11.11
2023-02-27T09:45:38.423Z,8.60
2023-02-27T09:46:37.420Z,0.00
2023-02-27T09:47:37.431Z,0.00
2023-02-27T09:48:38.931Z,0.00
2023-02-27T09:49:38.406Z,12.73
2023-02-27T09:50:37.880Z,53.54
2023-02-27T09:51:37.506Z,92.53
2023-02-27T09:52:37.468Z,95.07
2023-02-27T09:53:37.482Z,82.03
2023-02-27T09:55:37.585Z,49.90
2023-02-27T09:56:37.661Z,47.45
2023-02-27T09:57:37.704Z,51.14
2023-02-27T09:58:37.749Z,27.23
2023-02-27T09:59:37.850Z,34.74
2023-02-27T10:00:38.331Z,37.18
2023-02-27T10:01:37.895Z,34.36
2023-02-27T10:02:38.038Z,60.47
2023-02-27T10:03:38.239Z,68.88
2023-02-27T10:04:38.103Z,70.75
2023-02-27T10:06:38.213Z,46.58
2023-02-27T10:08:38.322Z,25.70
2023-02-27T10:18:39.178Z,59.82
2023-02-27T10:19:39.927Z,82.49
2023-02-27T10:20:41.404Z,93.55
2023-02-27T10:21:40.250Z,102.59
2023-02-27T10:22:41.236Z,133.49
2023-02-27T10:23:40.108Z,132.51
2023-02-27T10:24:41.942Z,150.00
2023-02-27T10:25:40.812Z,153.85
2023-02-27T10:28:39.843Z,183.80
2023-02-27T10:30:40.002Z,188.37
2023-02-27T10:35:39.485Z,198.84
2023-02-27T10:36:39.376Z,200.50
2023-02-27T10:37:39.339Z,203.74
2023-02-27T10:38:39.335Z,207.27
2023-02-27T10:39:39.313Z,210.18
2023-02-27T10:40:39.327Z,214.35
2023-02-27T10:41:40.055Z,213.63
2023-02-27T10:42:41.598Z,219.04
2023-02-27T10:43:39.296Z,216.79
2023-02-27T10:44:39.349Z,219.74
2023-02-27T10:45:39.840Z,217.10
2023-02-27T10:46:39.401Z,223.67
2023-02-27T10:47:39.444Z,194.07
2023-02-27T10:48:39.515Z,190.96
2023-02-27T10:55:39.974Z,221.04
2023-02-27T11:03:41.462Z,205.66
2023-02-27T11:04:40.155Z,204.57
2023-02-27T11:05:40.199Z,209.50
2023-02-27T11:06:40.206Z,210.40
2023-02-27T11:07:41.462Z,210.67
2023-02-27T11:09:40.261Z,209.10
2023-02-27T11:10:40.347Z,206.76
2023-02-27T11:11:40.041Z,209.46
2023-02-27T11:13:40.033Z,216.68
2023-02-27T11:14:40.022Z,217.40
2023-02-27T11:15:40.019Z,218.61
2023-02-27T11:16:40.032Z,212.22
2023-02-27T11:17:40.742Z,213.93
2023-02-27T11:18:39.966Z,208.58
2023-02-27T11:19:39.948Z,212.96
2023-02-27T11:20:40.014Z,214.56
2023-02-27T11:21:39.920Z,213.81
2023-02-27T11:22:39.951Z,216.50
2023-02-27T11:23:39.949Z,213.35
2023-02-27T11:24:40.953Z,209.76
2023-02-27T11:25:39.907Z,209.03
2023-02-27T11:26:40.331Z,211.99
2023-02-27T11:27:39.856Z,200.07
2023-02-27T11:28:39.868Z,210.10
2023-02-27T11:29:39.857Z,214.62
2023-02-27T11:30:39.841Z,215.41
2023-02-27T11:33:39.826Z,207.31
2023-02-27T11:34:39.812Z,213.91
2023-02-27T11:35:39.821Z,210.56
2023-02-27T11:36:39.862Z,212.48
2023-02-27T11:37:39.766Z,211.30
2023-02-27T11:38:39.837Z,207.61
2023-02-27T11:39:39.735Z,210.35
2023-02-27T11:40:39.689Z,213.95
2023-02-27T11:41:40.361Z,198.76
2023-02-27T11:42:39.697Z,123.04
2023-02-27T11:43:39.667Z,104.55
2023-02-27T11:44:50.843Z,87.06
2023-02-27T11:46:04.667Z,76.99
2023-02-27T11:46:46.922Z,75.06
2023-02-27T11:47:40.727Z,87.56
2023-02-27T11:48:39.707Z,94.15
2023-02-27T11:49:39.651Z,105.01
2023-02-27T11:50:39.665Z,111.39
2023-02-27T11:51:39.646Z,105.41
2023-02-27T11:52:39.799Z,100.16
2023-02-27T11:53:39.645Z,88.51
2023-02-27T11:54:39.707Z,102.43
2023-02-27T11:55:39.629Z,121.38
2023-02-27T11:56:39.639Z,136.00
2023-02-27T11:57:39.646Z,152.28
2023-02-27T11:58:39.603Z,160.57
2023-02-27T11:59:39.730Z,169.01
2023-02-27T12:00:39.608Z,187.22
2023-02-27T12:01:39.844Z,199.84
2023-02-27T12:02:39.662Z,202.94
2023-02-27T12:03:39.668Z,207.03
2023-02-27T12:04:39.589Z,209.34
2023-02-27T12:05:39.611Z,213.00
2023-02-27T12:06:39.864Z,215.06
2023-02-27T12:07:39.568Z,218.25
2023-02-27T12:08:39.560Z,219.26
2023-02-27T12:09:39.551Z,221.55
2023-02-27T12:10:39.550Z,221.76
2023-02-27T12:11:39.856Z,223.20
2023-02-27T12:12:39.516Z,225.52
2023-02-27T12:13:39.510Z,229.64
2023-02-27T12:14:39.576Z,232.24
2023-02-27T12:15:39.540Z,232.13
2023-02-27T12:16:39.959Z,233.22
2023-02-27T12:17:39.485Z,233.36
2023-02-27T12:18:39.454Z,234.96
2023-02-27T12:19:39.438Z,234.92
2023-02-27T12:20:39.411Z,236.25
2023-02-27T12:21:39.864Z,246.47
2023-02-27T12:22:39.357Z,252.50
2023-02-27T12:23:39.372Z,249.87
2023-02-27T12:24:39.354Z,248.82
2023-02-27T12:25:39.355Z,248.15
2023-02-27T12:26:39.446Z,246.21
2023-02-27T12:27:39.492Z,247.63
2023-02-27T12:28:39.508Z,250.00
2023-02-27T12:29:39.651Z,249.38
2023-02-27T12:30:39.575Z,246.90
2023-02-27T12:31:40.072Z,246.72
2023-02-27T12:32:39.909Z,244.69
2023-02-27T12:33:39.630Z,244.19
2023-02-27T12:34:39.714Z,243.63
2023-02-27T12:35:39.808Z,243.69
2023-02-27T12:36:39.715Z,243.74
2023-02-27T12:37:39.872Z,243.51
2023-02-27T12:38:39.756Z,243.09
2023-02-27T12:39:39.805Z,241.27
2023-02-27T12:40:39.883Z,241.43
2023-02-27T12:41:39.906Z,240.86
2023-02-27T12:46:40.085Z,236.88
2023-02-27T12:47:40.133Z,236.62
2023-02-27T12:48:40.170Z,235.16
2023-02-27T12:49:40.168Z,234.20
2023-02-27T12:50:40.233Z,234.53
2023-02-27T12:51:40.255Z,233.95
2023-02-27T12:52:40.289Z,233.09
2023-02-27T12:53:40.340Z,231.93
2023-02-27T12:54:40.405Z,231.88
2023-02-27T12:55:40.415Z,231.34
2023-02-27T12:56:40.480Z,230.14
2023-02-27T12:57:40.518Z,229.47
2023-02-27T12:58:40.503Z,228.27
2023-02-27T12:59:40.550Z,227.05
2023-02-27T13:00:40.552Z,227.31
2023-02-27T13:01:40.641Z,226.95
2023-02-27T13:02:40.661Z,225.91
2023-02-27T15:54:46.467Z,172.92
2023-02-27T15:55:46.522Z,172.33
2023-02-27T15:56:46.546Z,172.16
2023-02-27T15:58:00.773Z,172.79
2023-02-27T15:59:46.495Z,172.14
2023-02-27T16:00:46.541Z,172.89
2023-02-27T16:01:46.536Z,173.46
2023-02-27T16:02:46.474Z,172.81
2023-02-27T16:03:46.517Z,173.27
2023-02-27T16:13:46.468Z,172.69
2023-02-27T16:14:46.537Z,172.84
2023-02-27T16:15:46.566Z,174.14
2023-02-27T16:16:46.618Z,173.90
2023-02-27T16:17:46.660Z,172.16
2023-02-27T16:25:47.697Z,170.22
2023-02-27T16:26:46.958Z,171.00
2023-02-27T16:27:46.998Z,173.02
2023-02-27T16:28:47.051Z,171.12
2023-02-27T16:29:47.042Z,172.01
2023-02-27T16:30:47.063Z,171.43
2023-02-27T16:31:47.460Z,170.89
2023-02-27T16:32:47.122Z,170.00
2023-02-27T16:33:47.216Z,170.70
2023-02-27T17:16:48.793Z,170.39
2023-02-27T17:17:48.770Z,168.52
2023-02-27T17:18:48.821Z,169.21
2023-02-27T17:19:48.861Z,168.00
2023-02-27T17:20:48.875Z,168.99
2023-02-27T17:21:48.924Z,166.12
2023-02-27T17:22:48.983Z,167.88
2023-02-27T17:23:49.006Z,166.20
2023-02-27T17:24:49.029Z,167.37
2023-02-27T17:25:49.112Z,166.66
2023-02-27T17:26:51.487Z,164.78
2023-02-27T17:27:49.163Z,167.10
2023-02-27T17:28:49.146Z,166.44
2023-02-27T17:29:49.133Z,164.75
2023-02-27T17:30:49.117Z,165.28
2023-02-27T17:31:49.056Z,164.22
2023-02-27T17:32:49.006Z,165.09
2023-02-27T17:33:49.031Z,166.20
2023-02-27T17:34:48.995Z,169.11
2023-02-27T19:09:50.707Z,154.15
2023-02-27T19:10:50.726Z,154.35
2023-02-27T19:11:50.771Z,152.26
2023-02-27T19:12:50.822Z,153.56
2023-02-27T19:13:50.812Z,152.30
2023-02-27T19:14:50.871Z,153.73
2023-02-27T19:15:50.932Z,152.81
2023-02-27T19:16:50.880Z,159.06
2023-02-27T19:17:50.901Z,155.71
2023-02-27T19:18:50.921Z,153.17
2023-02-27T19:19:50.982Z,147.58
2023-02-27T19:20:50.997Z,148.59
2023-02-27T19:21:50.989Z,150.37
2023-02-27T19:22:51.028Z,149.68
2023-02-27T19:23:51.054Z,155.25
2023-02-27T19:24:51.068Z,148.95
2023-02-27T19:25:51.038Z,152.69
2023-02-27T19:26:53.333Z,152.88
2023-02-27T19:27:51.124Z,160.01
2023-02-27T19:28:51.080Z,157.73
2023-02-27T19:29:51.111Z,153.69
2023-02-27T19:30:51.126Z,154.20
2023-02-27T19:31:51.223Z,154.37
2023-02-27T19:32:51.279Z,155.87
2023-02-27T19:33:51.246Z,159.70
2023-02-27T19:34:51.280Z,156.55
2023-02-27T19:35:51.380Z,158.75
2023-02-27T19:36:51.343Z,157.92
2023-02-27T19:37:51.375Z,154.15
2023-02-27T19:38:51.404Z,154.56
2023-02-27T19:39:51.384Z,156.83
2023-02-27T19:40:51.461Z,150.82
2023-02-27T19:41:51.454Z,150.49
2023-02-27T19:42:51.489Z,152.97
2023-02-27T19:43:51.503Z,153.73
2023-02-27T19:44:51.502Z,151.64
2023-02-27T19:45:51.548Z,154.05
2023-02-27T19:46:51.790Z,158.68
2023-02-27T19:47:51.572Z,154.74
2023-02-27T19:48:51.617Z,153.55
2023-02-27T19:49:51.628Z,155.23
2023-02-27T19:50:51.617Z,158.60
2023-02-27T19:51:51.607Z,159.24
2023-02-27T19:52:51.633Z,154.85
2023-02-27T19:53:51.668Z,153.79
2023-02-27T19:54:51.728Z,150.67
2023-02-27T19:55:51.722Z,149.20
2023-02-27T19:56:51.748Z,156.75
2023-02-27T19:57:51.773Z,153.43
2023-02-27T19:58:51.824Z,152.87
2023-02-27T19:59:51.795Z,149.68
2023-02-27T20:00:51.845Z,149.12
2023-02-27T20:01:51.804Z,152.08
2023-02-27T20:02:51.852Z,150.36
2023-02-27T20:03:51.913Z,149.93
2023-02-27T20:04:51.937Z,152.57
2023-02-27T20:05:51.967Z,147.51
2023-02-27T20:06:51.962Z,150.44
2023-02-27T20:07:51.976Z,148.56
2023-02-27T20:08:52.038Z,151.77
2023-02-27T20:09:52.066Z,148.79
2023-02-27T20:10:52.074Z,149.92
2023-02-27T20:11:52.066Z,144.68
2023-02-27T20:12:52.085Z,148.04
2023-02-27T20:13:52.081Z,147.99
2023-02-27T20:14:52.156Z,144.92
2023-02-27T20:15:52.146Z,148.01
2023-02-27T20:16:52.206Z,149.46
2023-02-27T20:17:52.148Z,149.37
2023-02-27T20:18:52.190Z,149.36
2023-02-27T20:19:52.174Z,153.27
2023-02-27T20:20:52.276Z,154.10
2023-02-27T20:21:52.239Z,149.19
2023-02-27T20:22:52.221Z,151.21
2023-02-27T20:23:52.221Z,150.46
2023-02-27T20:24:52.285Z,150.36
2023-02-27T20:25:52.271Z,147.68
2023-02-27T20:26:52.305Z,146.52
2023-02-27T20:27:52.299Z,148.66
2023-02-27T20:28:52.320Z,148.47
2023-02-27T20:29:52.342Z,149.88
2023-02-27T20:30:52.400Z,149.59
2023-02-27T20:31:52.508Z,147.52
2023-02-27T20:32:52.401Z,145.99
2023-02-27T20:33:52.455Z,151.01
2023-02-27T20:34:55.433Z,148.40
2023-02-27T20:35:52.448Z,150.44
2023-02-27T20:36:52.419Z,151.55
2023-02-27T20:37:52.424Z,152.75
2023-02-27T20:38:52.425Z,153.33
2023-02-27T20:39:52.387Z,147.05
2023-02-27T20:40:52.392Z,149.01
2023-02-27T20:41:52.361Z,147.47
2023-02-27T20:42:52.366Z,148.46
2023-02-27T20:43:52.363Z,148.50
2023-02-27T20:44:52.366Z,152.85
2023-02-27T20:45:52.347Z,155.00
2023-02-27T20:46:52.343Z,152.53
2023-02-27T20:47:52.314Z,148.65
2023-02-27T20:48:52.301Z,150.01
2023-02-27T20:49:52.288Z,149.90
2023-02-27T20:50:52.319Z,148.81
2023-02-27T20:51:52.277Z,148.21
2023-02-27T20:52:52.265Z,147.15
2023-02-27T20:53:52.265Z,145.16
2023-02-27T20:54:52.234Z,143.18
2023-02-27T20:55:52.252Z,144.96
2023-02-27T20:56:52.277Z,144.38
2023-02-27T20:57:52.221Z,146.14
2023-02-27T20:58:52.211Z,147.15
2023-02-27T20:59:52.202Z,146.78
2023-02-27T21:00:52.222Z,146.18
2023-02-27T21:01:52.395Z,145.63
2023-02-27T21:02:52.151Z,148.03
2023-02-27T21:03:52.240Z,149.42
2023-02-27T21:04:52.183Z,151.86
2023-02-27T21:05:52.103Z,150.28
2023-02-27T21:06:52.119Z,148.89
2023-02-27T21:07:52.145Z,146.90
2023-02-27T21:08:52.090Z,146.84
2023-02-27T21:09:52.088Z,149.04
2023-02-27T21:10:52.067Z,145.90
2023-02-27T21:11:52.053Z,147.50
2023-02-27T21:12:52.028Z,149.26
2023-02-27T21:13:52.052Z,150.62
2023-02-27T21:14:52.020Z,146.72
2023-02-27T21:15:52.090Z,145.66
2023-02-27T21:16:52.021Z,146.98
2023-02-27T21:17:52.007Z,143.51
2023-02-27T21:18:51.991Z,144.43
2023-02-27T21:19:51.954Z,146.13
2023-02-27T21:20:51.963Z,148.74
2023-02-27T21:21:51.957Z,150.16
2023-02-27T21:22:51.958Z,148.14
2023-02-27T21:23:51.925Z,149.22
2023-02-27T21:24:51.883Z,144.89
2023-02-27T21:25:51.889Z,144.28
2023-02-27T21:26:51.890Z,145.49
2023-02-27T21:27:51.851Z,149.72
2023-02-27T21:28:51.857Z,152.35
2023-02-27T21:29:51.821Z,152.16
2023-02-27T21:30:51.874Z,148.90
2023-02-27T21:31:51.835Z,150.42
2023-02-27T21:32:51.774Z,150.56
2023-02-27T21:33:51.799Z,150.33